Time;durP1;ratioP1;P1;durP2;ratioP2;P2;SDS_P1;SDS_P2;PMS_P1;PMS_P2;Temp;Humidity;BMP_temperature;BMP_pressure;BME280_temperature;BME280_humidity;BME280_pressure;Samples;Min_cycle;Max_cycle;Signal;HPM_P1;HPM_P2
2023/06/23 00:01:45;;;;;;;6.90;6.23;;;;;;;;;;5086162;28;20554;-78
2023/06/23 00:04:11;;;;;;;5.47;5.00;;;;;;;;;;5080742;28;20244;-79
2023/06/23 00:06:38;;;;;;;6.03;5.43;;;;;;;;;;5088969;28;20192;-77
2023/06/23 00:09:13;;;;;;;5.17;4.73;;;;;;;;;;5095237;28;20200;-78
2023/06/23 00:11:39;;;;;;;6.23;5.63;;;;;;;;;;5093817;28;20183;-78
2023/06/23 00:14:06;;;;;;;6.70;5.70;;;;;;;;;;5083398;28;20279;-78
2023/06/23 00:16:32;;;;;;;6.10;5.03;;;;;;;;;;5087233;28;20254;-77
2023/06/23 00:18:58;;;;;;;6.03;5.50;;;;;;;;;;5090074;28;20184;-78
2023/06/23 00:21:24;;;;;;;6.37;5.60;;;;;;;;;;5085040;28;20197;-77
2023/06/23 00:23:50;;;;;;;6.10;5.27;;;;;;;;;;5079949;28;20200;-78
2023/06/23 00:26:16;;;;;;;5.80;5.17;;;;;;;;;;5088936;28;20180;-78
2023/06/23 00:28:42;;;;;;;5.43;5.03;;;;;;;;;;5075984;28;20189;-78
2023/06/23 00:31:08;;;;;;;5.27;4.77;;;;;;;;;;5086596;28;20512;-78
2023/06/23 00:33:34;;;;;;;6.00;5.10;;;;;;;;;;5092176;28;20529;-77
2023/06/23 00:36:00;;;;;;;6.27;5.37;;;;;;;;;;5090088;28;20279;-77
2023/06/23 00:38:26;;;;;;;5.90;4.77;;;;;;;;;;5088071;28;20188;-78
2023/06/23 00:40:52;;;;;;;6.60;5.53;;;;;;;;;;5088526;28;20643;-78
2023/06/23 00:43:18;;;;;;;5.47;4.97;;;;;;;;;;5078156;28;20884;-77
2023/06/23 00:45:44;;;;;;;4.77;4.33;;;;;;;;;;5083869;28;20201;-78
2023/06/23 00:48:14;;;;;;;6.47;5.40;;;;;;;;;;5090200;28;20218;-77
2023/06/23 00:50:41;;;;;;;4.90;4.50;;;;;;;;;;5087108;28;20651;-78
2023/06/23 00:53:07;;;;;;;4.70;4.30;;;;;;;;;;5090002;28;20180;-78
2023/06/23 00:55:37;;;;;;;4.77;4.43;;;;;;;;;;5091002;28;20192;-78
2023/06/23 00:58:05;;;;;;;4.90;4.50;;;;;;;;;;5088265;28;20243;-78
2023/06/23 01:00:31;;;;;;;5.40;4.90;;;;;;;;;;5083004;28;20581;-78
2023/06/23 01:03:02;;;;;;;4.93;4.43;;;;;;;;;;5083578;28;20223;-78
2023/06/23 01:05:36;;;;;;;5.40;4.57;;;;;;;;;;5086522;28;20313;-78
2023/06/23 01:08:25;;;;;;;4.60;4.23;;;;;;;;;;5086784;28;20535;-79
2023/06/23 01:10:51;;;;;;;5.20;4.70;;;;;;;;;;5074145;28;20518;-78
2023/06/23 01:13:33;;;;;;;4.90;4.40;;;;;;;;;;5088479;28;20176;-77
2023/06/23 01:16:02;;;;;;;5.57;5.07;;;;;;;;;;5085756;28;20176;-77
2023/06/23 01:18:40;;;;;;;4.87;3.93;;;;;;;;;;5093429;28;20212;-78
2023/06/23 01:21:08;;;;;;;5.27;4.77;;;;;;;;;;5089345;28;20179;-77
2023/06/23 01:23:53;;;;;;;5.70;5.10;;;;;;;;;;5084075;28;20282;-77
2023/06/23 01:26:37;;;;;;;5.90;4.83;;;;;;;;;;5085080;28;20184;-80
2023/06/23 01:29:07;;;;;;;5.93;4.87;;;;;;;;;;5088372;28;20187;-78
2023/06/23 01:31:39;;;;;;;5.90;4.43;;;;;;;;;;5102342;28;20183;-78
2023/06/23 01:34:08;;;;;;;5.37;4.87;;;;;;;;;;5106833;28;20184;-78
2023/06/23 01:36:39;;;;;;;5.57;4.97;;;;;;;;;;5089111;28;20187;-78
2023/06/23 01:39:07;;;;;;;5.10;4.60;;;;;;;;;;5089655;28;20210;-78
2023/06/23 01:41:38;;;;;;;5.47;4.77;;;;;;;;;;5082237;28;20188;-78
2023/06/23 01:44:06;;;;;;;6.93;4.50;;;;;;;;;;5083763;28;20212;-78
2023/06/23 01:46:35;;;;;;;5.60;4.47;;;;;;;;;;5081155;28;20234;-78
2023/06/23 01:49:03;;;;;;;4.73;3.80;;;;;;;;;;5086529;28;20206;-78
2023/06/23 01:51:29;;;;;;;5.17;4.60;;;;;;;;;;5088309;28;20198;-78
2023/06/23 01:53:55;;;;;;;4.37;3.97;;;;;;;;;;5089006;28;20663;-78
2023/06/23 01:56:23;;;;;;;4.90;4.50;;;;;;;;;;5088039;28;20241;-78
2023/06/23 01:58:49;;;;;;;5.37;4.87;;;;;;;;;;5087356;28;20654;-78
2023/06/23 02:01:16;;;;;;;4.47;4.07;;;;;;;;;;5073881;28;20672;-78
2023/06/23 02:03:42;;;;;;;4.87;4.30;;;;;;;;;;5084763;28;20592;-78
2023/06/23 02:06:09;;;;;;;4.93;4.53;;;;;;;;;;5088455;28;20180;-78
2023/06/23 02:08:36;;;;;;;5.10;4.60;;;;;;;;;;5084826;28;20891;-78
2023/06/23 02:11:03;;;;;;;4.20;3.80;;;;;;;;;;5083869;28;20633;-78
2023/06/23 02:13:30;;;;;;;4.63;4.23;;;;;;;;;;5087501;28;20258;-78
2023/06/23 02:15:56;;;;;;;7.30;4.83;;;;;;;;;;5089046;28;20609;-78
2023/06/23 02:18:24;;;;;;;4.33;3.93;;;;;;;;;;5090345;28;20199;-78
2023/06/23 02:20:51;;;;;;;4.60;4.20;;;;;;;;;;5084665;28;20700;-78
2023/06/23 02:23:17;;;;;;;5.00;4.60;;;;;;;;;;5085546;28;20224;-78
2023/06/23 02:25:44;;;;;;;4.70;4.23;;;;;;;;;;5085191;28;20188;-78
2023/06/23 02:28:12;;;;;;;4.70;4.30;;;;;;;;;;5089785;28;20186;-78
2023/06/23 02:30:43;;;;;;;4.87;4.47;;;;;;;;;;5082320;28;20184;-78
2023/06/23 02:33:09;;;;;;;4.70;4.10;;;;;;;;;;5084380;28;20181;-78
2023/06/23 02:35:35;;;;;;;4.43;4.03;;;;;;;;;;5095483;28;20219;-78
2023/06/23 02:38:02;;;;;;;6.10;4.30;;;;;;;;;;5084705;28;20207;-78
2023/06/23 02:40:30;;;;;;;4.60;4.10;;;;;;;;;;5085854;28;20187;-78
2023/06/23 02:43:02;;;;;;;4.93;4.53;;;;;;;;;;5080588;28;20907;-78
2023/06/23 02:45:34;;;;;;;3.93;3.57;;;;;;;;;;5083967;28;20180;-78
2023/06/23 02:48:01;;;;;;;4.30;3.90;;;;;;;;;;5082052;28;20667;-78
2023/06/23 02:50:29;;;;;;;4.10;3.80;;;;;;;;;;5083918;28;20225;-78
2023/06/23 02:52:57;;;;;;;4.50;4.20;;;;;;;;;;5086573;28;20223;-77
2023/06/23 02:55:23;;;;;;;5.70;5.20;;;;;;;;;;5091007;28;20583;-78
2023/06/23 02:57:51;;;;;;;4.23;3.67;;;;;;;;;;5093071;28;20203;-78
2023/06/23 03:00:22;;;;;;;4.53;4.13;;;;;;;;;;5089943;28;20181;-78
2023/06/23 03:02:52;;;;;;;5.00;4.60;;;;;;;;;;5088831;28;20712;-78
2023/06/23 03:05:18;;;;;;;5.07;4.67;;;;;;;;;;5093735;28;20177;-78
2023/06/23 03:07:44;;;;;;;6.47;4.63;;;;;;;;;;5092945;28;20190;-78
2023/06/23 03:10:10;;;;;;;5.20;4.70;;;;;;;;;;5089550;28;20183;-78
2023/06/23 03:12:36;;;;;;;5.13;4.63;;;;;;;;;;5084778;28;20201;-78
2023/06/23 03:15:02;;;;;;;5.27;4.77;;;;;;;;;;5090216;28;20189;-78
2023/06/23 03:17:31;;;;;;;4.87;4.47;;;;;;;;;;5086626;28;20179;-78
2023/06/23 03:20:12;;;;;;;5.20;4.70;;;;;;;;;;5088703;28;20180;-78
2023/06/23 03:22:46;;;;;;;6.77;4.87;;;;;;;;;;5087595;28;20232;-78
2023/06/23 03:25:14;;;;;;;5.70;4.67;;;;;;;;;;5086354;28;20267;-78
2023/06/23 03:27:42;;;;;;;6.07;5.23;;;;;;;;;;5089012;28;20204;-77
2023/06/23 03:30:12;;;;;;;5.83;4.97;;;;;;;;;;5081180;28;20232;-78
2023/06/23 03:32:49;;;;;;;6.30;4.93;;;;;;;;;;5084231;28;20185;-78
2023/06/23 03:35:17;;;;;;;4.87;4.40;;;;;;;;;;5090232;28;20171;-78
2023/06/23 03:37:46;;;;;;;5.07;4.67;;;;;;;;;;5082877;28;20192;-78
2023/06/23 03:40:14;;;;;;;6.43;5.90;;;;;;;;;;5089933;28;20179;-78
2023/06/23 03:42:42;;;;;;;5.40;4.90;;;;;;;;;;5092699;28;20559;-78
2023/06/23 03:45:08;;;;;;;5.83;5.30;;;;;;;;;;5090046;28;20207;-77
2023/06/23 03:47:35;;;;;;;6.17;5.57;;;;;;;;;;5088693;28;20180;-78
2023/06/23 03:50:08;;;;;;;6.20;5.60;;;;;;;;;;5082456;28;20231;-78
2023/06/23 03:52:37;;;;;;;6.07;5.53;;;;;;;;;;5107119;28;20595;-78
2023/06/23 03:55:03;;;;;;;6.30;5.80;;;;;;;;;;5107690;28;20823;-78
2023/06/23 03:57:31;;;;;;;5.93;5.33;;;;;;;;;;5089749;28;20752;-78
2023/06/23 03:59:57;;;;;;;6.23;5.47;;;;;;;;;;5084989;28;20173;-78
2023/06/23 04:02:24;;;;;;;7.27;6.57;;;;;;;;;;5082728;28;20181;-80
2023/06/23 04:04:51;;;;;;;8.07;6.47;;;;;;;;;;5085869;28;20183;-78
2023/06/23 04:07:19;;;;;;;6.83;6.20;;;;;;;;;;5087679;28;20258;-78
2023/06/23 04:09:46;;;;;;;6.47;5.87;;;;;;;;;;5083899;28;20180;-78
2023/06/23 04:12:14;;;;;;;7.30;5.83;;;;;;;;;;5087591;28;20556;-78
2023/06/23 04:14:42;;;;;;;6.77;5.43;;;;;;;;;;5089349;28;20176;-78
2023/06/23 04:17:10;;;;;;;6.90;6.20;;;;;;;;;;5087930;28;20185;-78
2023/06/23 04:19:36;;;;;;;6.43;5.83;;;;;;;;;;5087326;28;20714;-78
2023/06/23 04:22:04;;;;;;;6.80;6.17;;;;;;;;;;5080940;28;20642;-78
2023/06/23 04:24:31;;;;;;;6.53;5.93;;;;;;;;;;5086973;28;20204;-78
2023/06/23 04:26:58;;;;;;;7.47;6.20;;;;;;;;;;5087866;28;20282;-78
2023/06/23 04:29:25;;;;;;;6.93;6.20;;;;;;;;;;5084864;28;20188;-78
2023/06/23 04:31:52;;;;;;;6.50;5.90;;;;;;;;;;5083088;28;20207;-78
2023/06/23 04:34:18;;;;;;;7.13;5.97;;;;;;;;;;5091886;28;20180;-78
2023/06/23 04:36:49;;;;;;;6.70;5.67;;;;;;;;;;5080779;28;20193;-78
2023/06/23 04:39:25;;;;;;;7.10;5.93;;;;;;;;;;5080630;28;20726;-78
2023/06/23 04:41:53;;;;;;;6.17;5.43;;;;;;;;;;5088128;28;20183;-79
2023/06/23 04:44:21;;;;;;;5.77;5.27;;;;;;;;;;5085022;28;20543;-78
2023/06/23 04:46:49;;;;;;;6.57;5.93;;;;;;;;;;5086461;28;20183;-78
2023/06/23 04:49:19;;;;;;;7.50;6.10;;;;;;;;;;5077630;28;20178;-78
2023/06/23 04:51:48;;;;;;;7.27;5.23;;;;;;;;;;5086945;28;20185;-78
2023/06/23 04:54:20;;;;;;;6.57;5.90;;;;;;;;;;5093015;28;20658;-78
2023/06/23 04:56:48;;;;;;;6.80;6.20;;;;;;;;;;5085602;28;20222;-78
2023/06/23 04:59:14;;;;;;;8.17;6.53;;;;;;;;;;5087826;28;20559;-78
2023/06/23 05:01:42;;;;;;;7.33;6.63;;;;;;;;;;5086698;28;20189;-78
2023/06/23 05:04:09;;;;;;;6.50;5.70;;;;;;;;;;5085873;28;20698;-78
2023/06/23 05:06:36;;;;;;;7.23;6.63;;;;;;;;;;5089094;28;20656;-78
2023/06/23 05:09:04;;;;;;;8.13;6.17;;;;;;;;;;5087225;28;20190;-79
2023/06/23 05:11:31;;;;;;;7.37;6.67;;;;;;;;;;5079297;28;20654;-78
2023/06/23 05:13:58;;;;;;;6.40;5.90;;;;;;;;;;5089383;28;20212;-77
2023/06/23 05:16:25;;;;;;;7.40;6.50;;;;;;;;;;5088372;28;20180;-78
2023/06/23 05:18:54;;;;;;;7.40;6.80;;;;;;;;;;5090349;28;20184;-77
2023/06/23 05:21:21;;;;;;;6.90;6.30;;;;;;;;;;5081898;28;20197;-78
2023/06/23 05:23:49;;;;;;;6.47;5.83;;;;;;;;;;5093031;28;20206;-78
2023/06/23 05:26:16;;;;;;;7.20;6.47;;;;;;;;;;5080634;28;20185;-77
2023/06/23 05:28:42;;;;;;;6.57;5.97;;;;;;;;;;5093442;28;20294;-76
2023/06/23 05:31:09;;;;;;;7.10;5.70;;;;;;;;;;5081869;28;20172;-80
2023/06/23 05:33:36;;;;;;;6.73;6.13;;;;;;;;;;5091661;28;20362;-80
2023/06/23 05:36:03;;;;;;;9.60;6.30;;;;;;;;;;5081896;28;20286;-80
2023/06/23 05:38:31;;;;;;;6.60;6.00;;;;;;;;;;5090792;28;20179;-80
2023/06/23 05:40:57;;;;;;;9.17;6.60;;;;;;;;;;5080992;28;20254;-80
2023/06/23 05:43:23;;;;;;;8.73;6.67;;;;;;;;;;5086875;28;20222;-80
2023/06/23 05:45:52;;;;;;;8.43;6.40;;;;;;;;;;5088127;28;20670;-81
2023/06/23 05:48:22;;;;;;;7.93;6.77;;;;;;;;;;5088538;28;20210;-80
2023/06/23 05:50:50;;;;;;;8.80;6.97;;;;;;;;;;5092833;28;20180;-80
2023/06/23 05:53:20;;;;;;;6.63;6.03;;;;;;;;;;5090250;28;20197;-80
2023/06/23 05:55:51;;;;;;;7.77;6.43;;;;;;;;;;5083344;28;20198;-80
2023/06/23 05:58:18;;;;;;;8.63;6.40;;;;;;;;;;5084238;28;20201;-80
2023/06/23 06:00:57;;;;;;;6.67;6.17;;;;;;;;;;5084532;28;20218;-80
2023/06/23 06:03:28;;;;;;;7.93;7.20;;;;;;;;;;5085662;28;20239;-80
2023/06/23 06:05:55;;;;;;;7.00;6.30;;;;;;;;;;5088547;28;20666;-80
2023/06/23 06:08:23;;;;;;;6.77;6.17;;;;;;;;;;5079944;28;20181;-80
2023/06/23 06:10:51;;;;;;;7.20;6.50;;;;;;;;;;5083725;28;20776;-79
2023/06/23 06:13:17;;;;;;;7.50;6.70;;;;;;;;;;5088664;28;20183;-80
2023/06/23 06:15:44;;;;;;;8.10;6.43;;;;;;;;;;5086116;28;20183;-80
2023/06/23 06:18:11;;;;;;;8.73;6.40;;;;;;;;;;5091784;28;20184;-79
2023/06/23 06:20:39;;;;;;;7.00;6.20;;;;;;;;;;5085059;28;20194;-80
2023/06/23 06:23:06;;;;;;;6.47;5.87;;;;;;;;;;5085574;28;20201;-80
2023/06/23 06:25:34;;;;;;;7.33;6.63;;;;;;;;;;5093488;28;20164;-80
2023/06/23 06:28:01;;;;;;;8.57;6.80;;;;;;;;;;5091125;28;20176;-77
2023/06/23 06:30:28;;;;;;;7.03;6.27;;;;;;;;;;5091717;28;20179;-77
2023/06/23 06:32:54;;;;;;;8.40;7.60;;;;;;;;;;5092725;28;20168;-77
2023/06/23 06:35:22;;;;;;;8.57;7.33;;;;;;;;;;5089023;28;20184;-78
2023/06/23 06:37:51;;;;;;;8.77;7.77;;;;;;;;;;5091571;28;20187;-80
2023/06/23 06:40:22;;;;;;;9.40;8.50;;;;;;;;;;5083522;28;20183;-78
2023/06/23 06:42:48;;;;;;;9.13;8.23;;;;;;;;;;5089845;28;20265;-77
2023/06/23 06:45:14;;;;;;;8.53;7.73;;;;;;;;;;5102138;28;20709;-78
2023/06/23 06:47:43;;;;;;;9.50;7.80;;;;;;;;;;5099255;28;20183;-78
2023/06/23 06:50:10;;;;;;;8.93;8.03;;;;;;;;;;5087060;28;20203;-77
2023/06/23 06:52:37;;;;;;;8.73;7.83;;;;;;;;;;5088396;28;20573;-78
2023/06/23 06:55:03;;;;;;;8.20;7.40;;;;;;;;;;5094984;28;20219;-78
2023/06/23 06:57:30;;;;;;;9.20;8.27;;;;;;;;;;5090893;28;20168;-77
2023/06/23 06:59:56;;;;;;;8.30;7.50;;;;;;;;;;5095208;28;20176;-77
2023/06/23 07:02:22;;;;;;;8.07;7.33;;;;;;;;;;5095797;28;20233;-77
2023/06/23 07:04:49;;;;;;;9.47;8.40;;;;;;;;;;5092768;28;20232;-77
2023/06/23 07:07:15;;;;;;;8.33;7.50;;;;;;;;;;5082041;28;20183;-78
2023/06/23 07:09:41;;;;;;;9.37;7.70;;;;;;;;;;5091762;28;20217;-80
2023/06/23 07:12:07;;;;;;;8.50;6.80;;;;;;;;;;5098614;28;20182;-79
2023/06/23 07:14:33;;;;;;;8.60;7.80;;;;;;;;;;5097453;28;20184;-80
2023/06/23 07:16:59;;;;;;;7.60;6.87;;;;;;;;;;5095545;28;20190;-77
2023/06/23 07:19:25;;;;;;;9.25;7.65;;;;;;;;;;5088060;28;20188;-78
2023/06/23 07:21:51;;;;;;;8.93;8.00;;;;;;;;;;5090826;28;20188;-78
2023/06/23 07:24:17;;;;;;;8.33;7.43;;;;;;;;;;5089714;28;20211;-77
2023/06/23 07:26:43;;;;;;;10.10;8.03;;;;;;;;;;5094532;28;20183;-78
2023/06/23 07:29:09;;;;;;;6.93;6.33;;;;;;;;;;5088700;28;20199;-77
2023/06/23 07:31:37;;;;;;;9.83;7.53;;;;;;;;;;5094492;28;20170;-78
2023/06/23 07:34:03;;;;;;;8.30;6.50;;;;;;;;;;5096738;28;20184;-78
2023/06/23 07:36:29;;;;;;;7.33;6.63;;;;;;;;;;5094184;28;20188;-77
2023/06/23 07:38:55;;;;;;;7.27;6.57;;;;;;;;;;5093728;28;20277;-78
2023/06/23 07:41:21;;;;;;;7.93;6.93;;;;;;;;;;5088066;28;20210;-78
2023/06/23 07:43:47;;;;;;;9.00;6.73;;;;;;;;;;5093988;28;20648;-78
2023/06/23 07:46:13;;;;;;;6.47;5.87;;;;;;;;;;5098846;28;20197;-78
2023/06/23 07:48:39;;;;;;;9.17;8.23;;;;;;;;;;5094530;28;20194;-77
2023/06/23 07:51:05;;;;;;;11.03;10.03;;;;;;;;;;5087832;28;20876;-78
2023/06/23 07:53:31;;;;;;;13.43;12.03;;;;;;;;;;5101708;28;20238;-77
2023/06/23 07:55:57;;;;;;;15.20;10.57;;;;;;;;;;5095475;28;20176;-76
2023/06/23 07:58:23;;;;;;;15.57;10.80;;;;;;;;;;5098639;28;20184;-77
2023/06/23 08:00:50;;;;;;;13.43;11.97;;;;;;;;;;5090717;28;20193;-82
2023/06/23 08:03:16;;;;;;;11.30;9.93;;;;;;;;;;5090915;28;20294;-81
2023/06/23 08:05:42;;;;;;;14.00;10.50;;;;;;;;;;5098913;28;20182;-82
2023/06/23 08:08:08;;;;;;;11.13;10.03;;;;;;;;;;5096123;28;20767;-80
2023/06/23 08:10:35;;;;;;;10.87;9.87;;;;;;;;;;5091987;28;20189;-80
2023/06/23 08:13:01;;;;;;;10.43;9.43;;;;;;;;;;5096205;28;20240;-81
2023/06/23 08:15:27;;;;;;;8.20;7.43;;;;;;;;;;5087339;28;20201;-80
2023/06/23 08:17:54;;;;;;;8.57;7.77;;;;;;;;;;5087088;28;20200;-79
2023/06/23 08:20:20;;;;;;;9.03;8.13;;;;;;;;;;5091573;28;20228;-80
2023/06/23 08:22:47;;;;;;;9.03;8.20;;;;;;;;;;5088727;28;20188;-80
2023/06/23 08:25:14;;;;;;;9.10;8.30;;;;;;;;;;5086667;28;20190;-81
2023/06/23 08:27:40;;;;;;;11.63;8.73;;;;;;;;;;5094063;28;20187;-79
2023/06/23 08:30:06;;;;;;;9.80;8.77;;;;;;;;;;5088464;28;20188;-80
2023/06/23 08:32:33;;;;;;;7.17;6.47;;;;;;;;;;5092207;28;20203;-77
2023/06/23 08:35:00;;;;;;;9.30;7.20;;;;;;;;;;5088449;28;20687;-80
2023/06/23 08:37:26;;;;;;;6.47;5.90;;;;;;;;;;5074788;28;20242;-79
2023/06/23 08:39:52;;;;;;;7.23;6.30;;;;;;;;;;5089542;28;20180;-79
2023/06/23 08:42:18;;;;;;;15.97;7.03;;;;;;;;;;5086897;28;20595;-81
2023/06/23 08:44:45;;;;;;;8.13;6.43;;;;;;;;;;5087548;28;20210;-82
2023/06/23 08:47:12;;;;;;;7.17;6.47;;;;;;;;;;5084988;28;20501;-79
2023/06/23 08:49:40;;;;;;;6.90;6.20;;;;;;;;;;5083001;28;20545;-79
2023/06/23 08:52:06;;;;;;;7.93;6.20;;;;;;;;;;5089993;28;20186;-84
2023/06/23 08:54:33;;;;;;;7.83;6.43;;;;;;;;;;5093775;28;20304;-83
2023/06/23 08:56:59;;;;;;;7.37;6.67;;;;;;;;;;5094519;28;20183;-79
2023/06/23 08:59:25;;;;;;;7.30;6.50;;;;;;;;;;5090378;28;20599;-82
2023/06/23 09:01:52;;;;;;;6.17;5.60;;;;;;;;;;5089791;28;20186;-85
2023/06/23 09:04:18;;;;;;;6.67;5.93;;;;;;;;;;5087322;28;20318;-82
2023/06/23 09:06:44;;;;;;;7.43;5.67;;;;;;;;;;5085375;28;20594;-80
2023/06/23 09:09:10;;;;;;;6.70;6.00;;;;;;;;;;5103958;28;20222;-78
2023/06/23 09:11:36;;;;;;;7.87;5.20;;;;;;;;;;5089817;28;20182;-80
2023/06/23 09:14:04;;;;;;;7.50;5.70;;;;;;;;;;5083954;28;20233;-80
2023/06/23 09:16:30;;;;;;;10.13;6.30;;;;;;;;;;5078372;28;20220;-80
2023/06/23 09:18:56;;;;;;;6.23;5.63;;;;;;;;;;5084529;28;20273;-79
2023/06/23 09:21:22;;;;;;;6.10;4.63;;;;;;;;;;5086834;28;20646;-81
2023/06/23 09:24:04;;;;;;;7.47;5.20;;;;;;;;;;5082751;28;20320;-80
2023/06/23 09:26:44;;;;;;;6.03;5.53;;;;;;;;;;5086388;28;20179;-80
2023/06/23 09:29:17;;;;;;;6.20;5.60;;;;;;;;;;5088779;28;20192;-79
2023/06/23 09:31:43;;;;;;;5.57;5.00;;;;;;;;;;5080443;28;20728;-81
2023/06/23 09:34:09;;;;;;;8.67;6.03;;;;;;;;;;5091984;28;20247;-80
2023/06/23 09:36:36;;;;;;;6.70;5.40;;;;;;;;;;5084918;28;20216;-81
2023/06/23 09:39:03;;;;;;;8.50;5.60;;;;;;;;;;5088993;28;20187;-80
2023/06/23 09:41:33;;;;;;;6.43;5.20;;;;;;;;;;5106513;28;20199;-82
2023/06/23 09:43:59;;;;;;;7.10;5.80;;;;;;;;;;5083945;28;20210;-82
2023/06/23 09:46:32;;;;;;;5.50;5.10;;;;;;;;;;5084161;28;20188;-81
2023/06/23 09:49:00;;;;;;;6.90;5.63;;;;;;;;;;5089518;28;20200;-80
2023/06/23 09:51:27;;;;;;;7.73;6.07;;;;;;;;;;5084215;28;20662;-82
2023/06/23 09:53:53;;;;;;;6.33;5.73;;;;;;;;;;5081666;28;20204;-81
2023/06/23 09:56:19;;;;;;;6.27;5.67;;;;;;;;;;5085799;28;20555;-83
2023/06/23 09:58:47;;;;;;;6.33;5.60;;;;;;;;;;5091852;28;20192;-84
2023/06/23 10:01:15;;;;;;;8.53;5.10;;;;;;;;;;5084909;28;20185;-84
2023/06/23 10:03:48;;;;;;;6.17;5.13;;;;;;;;;;5081430;28;20228;-84
2023/06/23 10:06:24;;;;;;;6.57;5.63;;;;;;;;;;5081522;28;20188;-84
2023/06/23 10:08:54;;;;;;;6.30;5.70;;;;;;;;;;5089447;28;20690;-81
2023/06/23 10:11:21;;;;;;;5.63;5.23;;;;;;;;;;5085309;28;20209;-82
2023/06/23 10:13:48;;;;;;;5.93;5.33;;;;;;;;;;5080809;28;20663;-84
2023/06/23 10:16:14;;;;;;;6.13;5.53;;;;;;;;;;5091953;28;20193;-87
2023/06/23 10:18:40;;;;;;;6.13;5.63;;;;;;;;;;5090781;28;20667;-89
2023/06/23 10:21:06;;;;;;;6.17;5.60;;;;;;;;;;5089644;28;20278;-84
2023/06/23 10:23:33;;;;;;;8.33;5.90;;;;;;;;;;5079855;28;20215;-86
2023/06/23 10:26:00;;;;;;;5.77;5.27;;;;;;;;;;5085601;28;20264;-84
2023/06/23 10:28:27;;;;;;;5.93;5.43;;;;;;;;;;5091419;28;20667;-85
2023/06/23 10:30:53;;;;;;;7.17;5.20;;;;;;;;;;5082750;28;20247;-84
2023/06/23 10:33:21;;;;;;;6.20;4.83;;;;;;;;;;5085689;28;20296;-83
2023/06/23 10:35:48;;;;;;;5.90;5.30;;;;;;;;;;5088052;28;20189;-83
2023/06/23 10:38:25;;;;;;;6.20;4.67;;;;;;;;;;5080553;28;20664;-83
2023/06/23 10:40:52;;;;;;;4.67;4.37;;;;;;;;;;5099562;28;20227;-84
2023/06/23 10:43:21;;;;;;;4.90;4.50;;;;;;;;;;5084524;28;20568;-86
2023/06/23 10:45:49;;;;;;;5.17;4.67;;;;;;;;;;5079575;28;20175;-86
2023/06/23 10:48:15;;;;;;;4.83;4.40;;;;;;;;;;5080735;28;20635;-85
2023/06/23 10:50:41;;;;;;;4.53;4.23;;;;;;;;;;5079709;28;20237;-84
2023/06/23 10:53:28;;;;;;;6.23;4.83;;;;;;;;;;5086029;28;20272;-82
2023/06/23 10:55:57;;;;;;;5.90;5.00;;;;;;;;;;5078873;28;20636;-83
2023/06/23 10:58:24;;;;;;;5.27;4.83;;;;;;;;;;5087518;28;20299;-82
2023/06/23 11:00:56;;;;;;;4.60;4.20;;;;;;;;;;5077968;28;20180;-83
2023/06/23 11:03:35;;;;;;;4.47;4.17;;;;;;;;;;5075071;28;20230;-83
2023/06/23 11:06:06;;;;;;;4.87;4.47;;;;;;;;;;5081902;28;20536;-82
2023/06/23 11:08:36;;;;;;;5.53;4.40;;;;;;;;;;5097122;28;20181;-86
2023/06/23 11:11:02;;;;;;;4.80;4.40;;;;;;;;;;5098466;28;20202;-83
2023/06/23 11:13:34;;;;;;;4.80;4.40;;;;;;;;;;5098803;28;20208;-82
2023/06/23 11:16:01;;;;;;;4.90;4.50;;;;;;;;;;5087604;28;20674;-82
2023/06/23 11:18:27;;;;;;;5.07;4.57;;;;;;;;;;5098870;28;20194;-82
2023/06/23 11:20:54;;;;;;;5.27;4.77;;;;;;;;;;5090970;28;20266;-82
2023/06/23 11:23:20;;;;;;;4.80;4.40;;;;;;;;;;5087745;28;20210;-82
2023/06/23 11:25:51;;;;;;;4.83;4.43;;;;;;;;;;5089804;28;20164;-83
2023/06/23 11:28:29;;;;;;;4.40;4.07;;;;;;;;;;5090855;28;20208;-81
2023/06/23 11:31:07;;;;;;;5.33;4.83;;;;;;;;;;5086710;28;20559;-82
2023/06/23 11:33:39;;;;;;;4.53;3.90;;;;;;;;;;5091478;28;20188;-86
2023/06/23 11:36:16;;;;;;;4.67;4.27;;;;;;;;;;5093487;28;20189;-80
2023/06/23 11:38:43;;;;;;;5.70;4.50;;;;;;;;;;5085757;28;20190;-79
2023/06/23 11:41:09;;;;;;;5.17;4.67;;;;;;;;;;5089367;28;20211;-82
2023/06/23 11:43:39;;;;;;;4.23;3.87;;;;;;;;;;5081727;28;20223;-81
2023/06/23 11:46:15;;;;;;;3.93;3.63;;;;;;;;;;5083453;28;20187;-80
2023/06/23 11:48:42;;;;;;;4.40;4.10;;;;;;;;;;5081868;28;20187;-81
2023/06/23 11:51:09;;;;;;;5.20;3.83;;;;;;;;;;5086055;28;20271;-81
2023/06/23 11:53:36;;;;;;;4.20;3.83;;;;;;;;;;5093910;28;20235;-81
2023/06/23 11:56:03;;;;;;;4.10;3.80;;;;;;;;;;5093377;28;20198;-82
2023/06/23 11:58:30;;;;;;;4.30;4.00;;;;;;;;;;5093493;28;20279;-80
2023/06/23 12:00:56;;;;;;;4.40;3.87;;;;;;;;;;5089012;28;20182;-80
2023/06/23 12:03:22;;;;;;;5.13;4.73;;;;;;;;;;5092755;28;20226;-82
2023/06/23 12:05:48;;;;;;;4.47;4.17;;;;;;;;;;5089375;28;20183;-82
2023/06/23 12:08:14;;;;;;;4.90;4.30;;;;;;;;;;5084520;28;20199;-85
2023/06/23 12:10:41;;;;;;;4.37;3.97;;;;;;;;;;5091239;28;20247;-84
2023/06/23 12:13:11;;;;;;;4.47;4.00;;;;;;;;;;5089986;28;20176;-82
2023/06/23 12:15:37;;;;;;;4.27;3.97;;;;;;;;;;5090999;28;20252;-82
2023/06/23 12:18:04;;;;;;;4.87;4.47;;;;;;;;;;5087173;28;20192;-82
2023/06/23 12:20:34;;;;;;;4.47;4.17;;;;;;;;;;5089201;28;20722;-82
2023/06/23 12:23:02;;;;;;;4.33;4.03;;;;;;;;;;5091308;28;20219;-83
2023/06/23 12:25:32;;;;;;;4.47;4.07;;;;;;;;;;5088615;28;20206;-83
2023/06/23 12:27:58;;;;;;;5.57;5.17;;;;;;;;;;5089087;28;20267;-82
2023/06/23 12:30:25;;;;;;;8.40;4.90;;;;;;;;;;5085436;28;20184;-83
2023/06/23 12:32:55;;;;;;;4.67;3.97;;;;;;;;;;5088168;28;20187;-83
2023/06/23 12:35:21;;;;;;;4.63;4.13;;;;;;;;;;5090283;28;20271;-82
2023/06/23 12:37:48;;;;;;;4.55;4.15;;;;;;;;;;5084494;28;20172;-82
2023/06/23 12:40:29;;;;;;;4.47;4.17;;;;;;;;;;5091611;28;20176;-84
2023/06/23 12:42:57;;;;;;;5.10;4.60;;;;;;;;;;5088144;28;20233;-82
2023/06/23 12:45:24;;;;;;;5.18;4.78;;;;;;;;;;5089154;28;20286;-86
2023/06/23 12:47:51;;;;;;;4.73;4.33;;;;;;;;;;5084338;28;20191;-82
2023/06/23 12:50:25;;;;;;;6.07;4.67;;;;;;;;;;5092070;28;20264;-83
2023/06/23 12:52:51;;;;;;;5.17;4.70;;;;;;;;;;5090037;28;20191;-83
2023/06/23 12:55:17;;;;;;;5.50;4.97;;;;;;;;;;5088863;28;20195;-83
2023/06/23 12:57:44;;;;;;;5.18;4.68;;;;;;;;;;5090230;28;20245;-84
2023/06/23 13:00:12;;;;;;;5.93;4.83;;;;;;;;;;5089783;28;20184;-83
2023/06/23 13:02:38;;;;;;;4.90;4.50;;;;;;;;;;5089148;28;20318;-83
2023/06/23 13:05:05;;;;;;;5.28;4.88;;;;;;;;;;5087246;28;20856;-84
2023/06/23 13:07:31;;;;;;;5.47;4.97;;;;;;;;;;5085133;28;20180;-86
2023/06/23 13:09:58;;;;;;;7.97;5.97;;;;;;;;;;5082679;28;20275;-89
2023/06/23 13:12:24;;;;;;;5.22;4.82;;;;;;;;;;5092645;28;20219;-86
2023/06/23 13:14:52;;;;;;;5.68;5.18;;;;;;;;;;5082696;28;20184;-88
2023/06/23 13:17:19;;;;;;;5.22;4.72;;;;;;;;;;5082242;28;20183;-86
2023/06/23 13:19:45;;;;;;;5.10;4.60;;;;;;;;;;5086976;28;20180;-90
2023/06/23 13:22:11;;;;;;;4.90;4.25;;;;;;;;;;5086121;28;20211;-88
2023/06/23 13:24:37;;;;;;;4.70;4.40;;;;;;;;;;5092066;28;20208;-87
2023/06/23 13:27:08;;;;;;;8.52;4.70;;;;;;;;;;5093629;28;20400;-88
2023/06/23 13:29:34;;;;;;;4.82;4.35;;;;;;;;;;5093304;28;20190;-89
2023/06/23 13:32:00;;;;;;;5.17;4.43;;;;;;;;;;5084681;28;20659;-86
2023/06/23 13:34:26;;;;;;;5.00;4.60;;;;;;;;;;5094355;28;20325;-88
2023/06/23 13:36:52;;;;;;;4.43;4.03;;;;;;;;;;5094485;28;20518;-87
2023/06/23 13:39:19;;;;;;;5.20;4.80;;;;;;;;;;5082684;28;20204;-87
2023/06/23 13:41:45;;;;;;;5.47;4.97;;;;;;;;;;5084641;28;20251;-79
2023/06/23 13:44:13;;;;;;;5.25;4.68;;;;;;;;;;5088239;28;20252;-85
2023/06/23 13:46:39;;;;;;;5.03;4.65;;;;;;;;;;5083999;28;20279;-86
2023/06/23 13:49:05;;;;;;;5.03;4.60;;;;;;;;;;5091834;28;20203;-87
2023/06/23 13:51:31;;;;;;;4.65;4.25;;;;;;;;;;5088256;28;20188;-87
2023/06/23 13:53:57;;;;;;;5.00;4.50;;;;;;;;;;5086998;28;20227;-86
2023/06/23 13:56:23;;;;;;;5.05;4.55;;;;;;;;;;5087691;28;20184;-86
2023/06/23 13:58:49;;;;;;;4.85;4.35;;;;;;;;;;5091783;28;20175;-87
2023/06/23 14:01:15;;;;;;;5.47;5.07;;;;;;;;;;5090321;28;20186;-88
2023/06/23 14:03:41;;;;;;;5.70;4.30;;;;;;;;;;5090431;28;20251;-87
2023/06/23 14:06:07;;;;;;;4.77;4.13;;;;;;;;;;5089147;28;21016;-88
2023/06/23 14:08:35;;;;;;;4.50;4.10;;;;;;;;;;5082803;28;20195;-81
2023/06/23 14:11:01;;;;;;;4.67;4.30;;;;;;;;;;5090693;28;20209;-82
2023/06/23 14:13:27;;;;;;;5.22;4.47;;;;;;;;;;5083700;28;20604;-83
2023/06/23 14:15:53;;;;;;;5.15;4.00;;;;;;;;;;5088728;28;20276;-85
2023/06/23 14:18:19;;;;;;;4.72;4.32;;;;;;;;;;5082755;28;20671;-82
2023/06/23 14:20:45;;;;;;;5.57;4.37;;;;;;;;;;5085834;28;20160;-82
2023/06/23 14:23:12;;;;;;;5.60;5.13;;;;;;;;;;5088482;28;20223;-81
2023/06/23 14:25:38;;;;;;;4.55;4.15;;;;;;;;;;5080562;28;20180;-82
2023/06/23 14:28:04;;;;;;;4.90;4.43;;;;;;;;;;5087678;28;20666;-82
2023/06/23 14:30:30;;;;;;;5.18;4.70;;;;;;;;;;5086522;28;20302;-82
2023/06/23 14:32:56;;;;;;;4.70;4.00;;;;;;;;;;5086854;28;20191;-82
2023/06/23 14:35:22;;;;;;;4.57;4.18;;;;;;;;;;5081859;28;20181;-82
2023/06/23 14:37:48;;;;;;;4.47;4.07;;;;;;;;;;5090340;28;20651;-82
2023/06/23 14:40:14;;;;;;;5.22;4.18;;;;;;;;;;5091308;28;20210;-81
2023/06/23 14:42:42;;;;;;;4.68;4.30;;;;;;;;;;5090086;28;20176;-82
2023/06/23 14:45:09;;;;;;;4.88;4.40;;;;;;;;;;5091443;28;20204;-82
2023/06/23 14:47:36;;;;;;;4.10;3.80;;;;;;;;;;5092897;28;20180;-81